createdAt,value
2023-05-22T00:00:10.606Z,98439.56
2023-05-22T00:03:13.115Z,98408.75
2023-05-22T00:06:18.442Z,98425.09
2023-05-22T00:09:20.922Z,98413.91
2023-05-22T00:12:23.836Z,98430.97
2023-05-22T00:15:26.420Z,98434.81
2023-05-22T00:18:29.297Z,98438.31
2023-05-22T00:21:35.123Z,98432.34
2023-05-22T00:24:38.791Z,98432.84
2023-05-22T00:27:41.401Z,98436.72
2023-05-22T00:30:44.397Z,98437.59
2023-05-22T00:33:46.936Z,98432.38
2023-05-22T00:36:49.849Z,98433.44
2023-05-22T00:39:52.479Z,98428.97
2023-05-22T00:42:55.501Z,98429.84
2023-05-22T00:45:58.021Z,98427.12
2023-05-22T00:49:02.241Z,98425.81
2023-05-22T00:52:05.151Z,98425.50
2023-05-22T00:55:09.017Z,98427.44
2023-05-22T00:58:15.241Z,98412.34
2023-05-22T01:01:18.259Z,98433.53
2023-05-22T01:04:21.306Z,98431.22
2023-05-22T01:07:24.725Z,98427.94
2023-05-22T01:10:28.480Z,98419.22
2023-05-22T01:13:55.487Z,98416.81
2023-05-22T01:17:28.937Z,98418.91
2023-05-22T01:20:39.310Z,98411.78
2023-05-22T01:23:54.292Z,98398.63
2023-05-22T01:27:15.898Z,98404.53
2023-05-22T01:30:56.202Z,98403.09
2023-05-22T01:34:01.306Z,98422.84
2023-05-22T01:37:05.018Z,98415.59
2023-05-22T01:40:08.566Z,98418.00
2023-05-22T01:43:15.042Z,98425.66
2023-05-22T01:46:18.132Z,98395.84
2023-05-22T01:49:20.892Z,98413.16
2023-05-22T01:52:38.239Z,98414.81
2023-05-22T01:55:48.260Z,98408.16
2023-05-22T01:59:06.714Z,98406.56
2023-05-22T02:02:11.205Z,98414.22
2023-05-22T02:05:18.434Z,98414.16
2023-05-22T02:08:21.969Z,98404.44
2023-05-22T02:11:27.076Z,98402.13
2023-05-22T02:14:30.214Z,98405.78
2023-05-22T02:17:40.407Z,98395.53
2023-05-22T02:20:43.435Z,98397.66
2023-05-22T02:23:46.312Z,98413.59
2023-05-22T02:26:48.964Z,98401.91
2023-05-22T02:29:53.039Z,98405.22
2023-05-22T02:32:57.566Z,98405.38
2023-05-22T02:36:00.514Z,98404.62
2023-05-22T02:39:03.299Z,98411.09
2023-05-22T02:42:06.622Z,98408.56
2023-05-22T02:45:09.902Z,98412.53
2023-05-22T02:48:13.272Z,98395.97
2023-05-22T02:51:16.292Z,98398.25
2023-05-22T02:54:19.176Z,98394.28
2023-05-22T02:57:21.808Z,98391.84
2023-05-22T03:00:25.039Z,98394.72
2023-05-22T03:03:29.536Z,98391.84
2023-05-22T03:06:32.708Z,98400.03
2023-05-22T03:09:35.956Z,98395.69
2023-05-22T03:12:39.044Z,98390.34
2023-05-22T03:15:41.712Z,98393.34
2023-05-22T03:18:45.076Z,98386.19
2023-05-22T03:21:50.066Z,98380.06
2023-05-22T03:24:53.555Z,98370.78
2023-05-22T03:27:56.163Z,98372.41
2023-05-22T03:31:01.164Z,98375.91
2023-05-22T03:34:05.965Z,98384.72
2023-05-22T03:37:09.404Z,98388.19
2023-05-22T03:40:12.717Z,98392.75
2023-05-22T03:43:15.587Z,98397.31
2023-05-22T03:46:18.431Z,98393.34
2023-05-22T03:49:21.462Z,98390.72
2023-05-22T03:52:24.059Z,98382.63
2023-05-22T03:55:26.963Z,98379.69
2023-05-22T03:58:29.636Z,98381.28
2023-05-22T04:01:32.615Z,98383.72
2023-05-22T04:04:38.398Z,98385.78
2023-05-22T04:07:41.371Z,98389.78
2023-05-22T04:10:46.687Z,98331.25
2023-05-22T04:13:50.179Z,98380.03
2023-05-22T04:16:53.093Z,98383.25
2023-05-22T04:19:58.179Z,98387.88
2023-05-22T04:23:01.775Z,98388.00
2023-05-22T04:26:04.334Z,98380.84
2023-05-22T04:29:10.419Z,98378.63
2023-05-22T04:32:18.443Z,98378.25
2023-05-22T04:35:21.278Z,98379.69
2023-05-22T04:38:26.407Z,98387.56
2023-05-22T04:41:29.407Z,98378.44
2023-05-22T04:44:34.509Z,98383.19
2023-05-22T04:47:38.457Z,98356.03
2023-05-22T04:50:41.623Z,98377.16
2023-05-22T04:53:46.320Z,98369.25
2023-05-22T04:56:50.083Z,98379.13
2023-05-22T04:59:54.018Z,98379.09
2023-05-22T05:02:58.122Z,98380.91
2023-05-22T05:06:01.372Z,98379.13
2023-05-22T05:09:04.864Z,98376.38
2023-05-22T05:12:07.931Z,98361.94
2023-05-22T05:15:11.325Z,98375.66
2023-05-22T05:18:14.290Z,98372.53
2023-05-22T05:21:18.522Z,98361.84
2023-05-22T05:24:21.511Z,98385.00
2023-05-22T05:27:24.727Z,98393.63
2023-05-22T05:30:30.090Z,98405.44
2023-05-22T05:33:33.639Z,98412.72
2023-05-22T05:36:37.968Z,98417.19
2023-05-22T05:39:40.874Z,98414.72
2023-05-22T05:42:43.966Z,98416.34
2023-05-22T05:45:47.183Z,98423.72
2023-05-22T05:48:52.553Z,98424.59
2023-05-22T05:51:55.525Z,98424.97
2023-05-22T05:55:00.854Z,98423.78
2023-05-22T05:58:03.730Z,98419.88
2023-05-22T06:01:11.864Z,98416.84
2023-05-22T06:04:15.058Z,98419.66
2023-05-22T06:07:21.010Z,98427.72
2023-05-22T06:10:25.046Z,98430.75
2023-05-22T06:13:28.186Z,98430.22
2023-05-22T06:16:31.456Z,98426.66
2023-05-22T06:19:34.338Z,98433.50
2023-05-22T06:22:37.527Z,98424.81
2023-05-22T06:25:40.492Z,98419.19
2023-05-22T06:28:44.206Z,98435.38
2023-05-22T06:31:47.596Z,98434.59
2023-05-22T06:34:52.030Z,98442.47
2023-05-22T06:37:55.551Z,98439.19
2023-05-22T06:40:58.893Z,98439.50
2023-05-22T06:44:02.367Z,98439.72
2023-05-22T06:47:05.964Z,98434.16
2023-05-22T06:50:10.792Z,98425.06
2023-05-22T06:53:13.845Z,98432.78
2023-05-22T06:56:16.537Z,98427.03
2023-05-22T06:59:20.669Z,98436.91
2023-05-22T07:02:24.811Z,98442.69
2023-05-22T07:05:28.929Z,98434.94
2023-05-22T07:08:32.199Z,98441.34
2023-05-22T07:11:36.010Z,98440.53
2023-05-22T07:14:38.829Z,98438.47
2023-05-22T07:17:41.924Z,98436.59
2023-05-22T07:20:45.559Z,98438.22
2023-05-22T07:23:48.750Z,98433.91
2023-05-22T07:26:51.351Z,98441.44
2023-05-22T07:29:54.654Z,98440.09
2023-05-22T07:32:57.410Z,98443.28
2023-05-22T07:36:01.049Z,98441.66
2023-05-22T07:39:05.389Z,98440.25
2023-05-22T07:42:08.824Z,98438.00
2023-05-22T07:45:12.256Z,98436.44
2023-05-22T07:48:16.012Z,98426.16
2023-05-22T07:51:20.631Z,98437.44
2023-05-22T07:54:25.290Z,98434.69
2023-05-22T07:57:29.673Z,98432.72
2023-05-22T08:00:35.917Z,98438.19
2023-05-22T08:03:39.029Z,98434.34
2023-05-22T08:06:43.854Z,98436.06
2023-05-22T08:09:46.923Z,98430.37
2023-05-22T08:12:49.565Z,98431.66
2023-05-22T08:16:00.110Z,98446.03
2023-05-22T08:19:03.721Z,98436.09
2023-05-22T08:22:09.265Z,98433.94
2023-05-22T08:25:11.790Z,98439.88
2023-05-22T08:28:14.680Z,98439.50
2023-05-22T08:31:17.258Z,98438.47
2023-05-22T08:34:20.117Z,98441.38
2023-05-22T08:37:22.711Z,98439.22
2023-05-22T08:40:38.249Z,98440.63
2023-05-22T08:43:41.732Z,98433.13
2023-05-22T08:46:46.124Z,98444.66
2023-05-22T08:49:51.714Z,98435.25
2023-05-22T08:52:59.172Z,98433.63
2023-05-22T08:56:03.676Z,98439.00
2023-05-22T08:59:06.773Z,98435.31
2023-05-22T09:02:09.963Z,98432.34
2023-05-22T09:05:13.293Z,98431.34
2023-05-22T09:08:20.918Z,98426.69
2023-05-22T09:11:26.186Z,98427.31
2023-05-22T09:14:28.725Z,98426.53
2023-05-22T09:17:31.710Z,98425.59
2023-05-22T09:20:39.193Z,98431.28
2023-05-22T09:23:42.493Z,98427.16
2023-05-22T09:26:45.003Z,98424.31
2023-05-22T09:29:52.460Z,98421.56
2023-05-22T09:32:55.256Z,98420.31
2023-05-22T09:35:58.213Z,98420.94
2023-05-22T09:39:01.856Z,98419.84
2023-05-22T09:42:05.190Z,98415.63
2023-05-22T09:45:08.846Z,98410.25
2023-05-22T09:48:12.722Z,98403.22
2023-05-22T09:51:16.577Z,98402.84
2023-05-22T09:54:20.561Z,98395.28
2023-05-22T09:57:26.447Z,98399.91
2023-05-22T10:00:29.334Z,98396.66
2023-05-22T10:03:33.765Z,98398.88
2023-05-22T10:06:37.156Z,98404.00
2023-05-22T10:09:40.981Z,98403.00
2023-05-22T10:12:46.646Z,98392.81
2023-05-22T10:15:50.318Z,98398.09
2023-05-22T10:18:53.967Z,98391.78
2023-05-22T10:21:58.307Z,98389.66
2023-05-22T10:25:01.201Z,98387.91
2023-05-22T10:28:04.219Z,98385.87
2023-05-22T10:31:12.690Z,98375.91
2023-05-22T10:34:31.470Z,98382.75
2023-05-22T10:37:49.506Z,98391.16
2023-05-22T10:40:52.869Z,98393.09
2023-05-22T10:43:56.719Z,98370.81
2023-05-22T10:47:10.314Z,98361.97
2023-05-22T10:50:13.050Z,98377.72
2023-05-22T10:53:22.296Z,98378.44
2023-05-22T10:56:32.981Z,98371.78
2023-05-22T10:59:35.888Z,98373.06
2023-05-22T11:02:41.021Z,98366.31
2023-05-22T11:05:52.684Z,98365.66
2023-05-22T11:08:56.646Z,98355.19
2023-05-22T11:12:21.472Z,98343.47
2023-05-22T11:15:31.406Z,98353.75
2023-05-22T11:18:34.570Z,98351.38
2023-05-22T11:21:44.179Z,98346.00
2023-05-22T11:24:47.142Z,98339.06
2023-05-22T11:27:49.873Z,98338.28
2023-05-22T11:30:54.127Z,98337.84
2023-05-22T11:33:56.863Z,98344.97
2023-05-22T11:37:00.208Z,98338.16
2023-05-22T11:40:05.794Z,98337.03
2023-05-22T11:43:08.770Z,98331.59
2023-05-22T11:46:12.266Z,98331.00
2023-05-22T11:49:15.276Z,98327.38
2023-05-22T11:52:17.925Z,98329.06
2023-05-22T11:55:20.804Z,98333.06
2023-05-22T11:58:27.764Z,98328.19
2023-05-22T12:01:30.919Z,98328.59
2023-05-22T12:04:33.996Z,98326.53
2023-05-22T12:07:36.604Z,98322.34
2023-05-22T12:10:47.168Z,98324.53
2023-05-22T12:13:52.134Z,98317.88
2023-05-22T12:16:55.480Z,98323.22
2023-05-22T12:19:58.130Z,98316.94
2023-05-22T12:23:01.173Z,98317.91
2023-05-22T12:26:10.148Z,98315.72
2023-05-22T12:29:13.377Z,98315.50
2023-05-22T12:32:18.317Z,98305.44
2023-05-22T12:35:22.654Z,98303.75
2023-05-22T12:38:26.750Z,98301.53
2023-05-22T12:41:29.593Z,98291.81
2023-05-22T12:44:32.153Z,98296.44
2023-05-22T12:47:35.037Z,98295.63
2023-05-22T12:50:37.959Z,98286.50
2023-05-22T12:53:40.984Z,98272.66
2023-05-22T12:56:43.526Z,98276.94
2023-05-22T12:59:46.460Z,98269.50
2023-05-22T13:02:49.295Z,98272.41
2023-05-22T13:05:52.385Z,98271.75
2023-05-22T13:08:55.019Z,98253.81
2023-05-22T13:11:58.053Z,98242.16
2023-05-22T13:15:01.241Z,98252.19
2023-05-22T13:18:04.339Z,98249.88
2023-05-22T13:21:06.976Z,98240.78
2023-05-22T13:24:09.993Z,98252.31
2023-05-22T13:27:12.569Z,98246.38
2023-05-22T13:30:16.159Z,98251.03
2023-05-22T13:33:18.755Z,98246.78
2023-05-22T13:36:21.848Z,98242.06
2023-05-22T13:39:24.495Z,98238.81
2023-05-22T13:42:27.413Z,98241.06
2023-05-22T13:45:31.033Z,98246.41
2023-05-22T13:48:33.958Z,98236.69
2023-05-22T13:51:36.595Z,98242.81
2023-05-22T13:54:39.462Z,98235.84
2023-05-22T13:57:42.160Z,98237.59
2023-05-22T14:00:45.146Z,98232.37
2023-05-22T14:03:48.002Z,98225.81
2023-05-22T14:06:50.939Z,98232.00
2023-05-22T14:09:53.839Z,98228.34
2023-05-22T14:12:56.398Z,98231.25
2023-05-22T14:15:59.265Z,98210.31
2023-05-22T14:19:01.917Z,98214.44
2023-05-22T14:22:05.022Z,98215.25
2023-05-22T14:25:07.893Z,98215.81
2023-05-22T14:28:14.191Z,98211.44
2023-05-22T14:31:17.222Z,98214.19
2023-05-22T14:34:20.631Z,98215.59
2023-05-22T14:37:23.292Z,98212.28
2023-05-22T14:40:26.081Z,98200.38
2023-05-22T14:43:28.717Z,98209.37
2023-05-22T14:46:31.654Z,98200.09
2023-05-22T14:49:34.293Z,98200.41
2023-05-22T14:52:37.446Z,98195.22
2023-05-22T14:55:40.123Z,98197.09
2023-05-22T14:58:43.292Z,98198.12
2023-05-22T15:01:50.150Z,98188.31
2023-05-22T15:04:53.228Z,98191.25
2023-05-22T15:07:58.697Z,98191.41
2023-05-22T15:11:01.531Z,98202.66
2023-05-22T15:14:04.098Z,98195.22
2023-05-22T15:17:07.031Z,98189.19
2023-05-22T15:20:10.553Z,98190.91
2023-05-22T15:23:13.769Z,98190.59
2023-05-22T15:26:16.377Z,98195.25
2023-05-22T15:29:19.241Z,98186.44
2023-05-22T15:32:21.974Z,98182.47
2023-05-22T15:35:25.368Z,98188.47
2023-05-22T15:38:28.751Z,98187.75
2023-05-22T15:41:31.769Z,98180.84
2023-05-22T15:44:34.292Z,98178.22
2023-05-22T15:47:37.232Z,98177.81
2023-05-22T15:50:39.833Z,98176.97
2023-05-22T15:53:42.774Z,98170.06
2023-05-22T15:56:45.474Z,98172.94
2023-05-22T15:59:50.675Z,98159.53
2023-05-22T16:02:53.779Z,98165.66
2023-05-22T16:05:56.675Z,98169.91
2023-05-22T16:08:59.271Z,98170.50
2023-05-22T16:12:02.969Z,98167.06
2023-05-22T16:15:06.934Z,98165.78
2023-05-22T16:18:11.237Z,98180.81
2023-05-22T16:21:13.752Z,98176.41
2023-05-22T16:24:16.678Z,98175.19
2023-05-22T16:27:19.176Z,98174.59
2023-05-22T16:30:22.249Z,98180.41
2023-05-22T16:33:25.034Z,98175.03
2023-05-22T16:36:28.037Z,98182.03
2023-05-22T16:39:30.963Z,98186.75
2023-05-22T16:42:35.297Z,98183.44
2023-05-22T16:45:38.261Z,98182.00
2023-05-22T16:48:41.241Z,98158.97
2023-05-22T16:51:43.792Z,98176.59
2023-05-22T16:54:46.840Z,98180.94
2023-05-22T16:57:49.532Z,98180.84
2023-05-22T17:00:53.126Z,98179.91
2023-05-22T17:03:55.990Z,98179.41
2023-05-22T17:06:58.959Z,98180.47
2023-05-22T17:10:01.673Z,98174.31
2023-05-22T17:13:04.902Z,98181.47
2023-05-22T17:16:07.503Z,98183.62
2023-05-22T17:19:10.584Z,98182.50
2023-05-22T17:22:13.189Z,98188.97
2023-05-22T17:25:16.222Z,98185.84
2023-05-22T17:28:18.897Z,98188.72
2023-05-22T17:31:22.861Z,98186.87
2023-05-22T17:34:25.409Z,98185.31
2023-05-22T17:37:28.232Z,98187.63
2023-05-22T17:43:38.270Z,98205.94
2023-05-22T17:46:41.341Z,98192.94
2023-05-22T17:49:44.346Z,98204.16
2023-05-22T17:52:46.906Z,98196.38
2023-05-22T17:55:52.318Z,98196.50
2023-05-22T17:58:55.205Z,98186.81
2023-05-22T18:01:58.109Z,98188.69
2023-05-22T18:05:01.143Z,98185.03
2023-05-22T18:08:03.789Z,98189.63
2023-05-22T18:11:06.875Z,98192.31
2023-05-22T18:14:09.481Z,98193.69
2023-05-22T18:17:12.576Z,98195.41
2023-05-22T18:20:16.792Z,98194.94
2023-05-22T18:23:20.666Z,98198.78
2023-05-22T18:26:23.326Z,98199.59
2023-05-22T18:29:26.417Z,98198.41
2023-05-22T18:32:29.159Z,98210.16
2023-05-22T18:35:32.021Z,98189.56
2023-05-22T18:38:34.552Z,98212.44
2023-05-22T18:41:37.498Z,98209.84
2023-05-22T18:44:40.620Z,98216.09
2023-05-22T18:47:43.626Z,98212.41
2023-05-22T18:50:46.378Z,98220.47
2023-05-22T18:53:51.580Z,98216.75
2023-05-22T18:56:54.268Z,98221.09
2023-05-22T18:59:58.810Z,98229.53
2023-05-22T19:03:02.090Z,98225.56
2023-05-22T19:06:05.257Z,98224.38
2023-05-22T19:09:11.994Z,98230.81
2023-05-22T19:12:15.066Z,98234.94
2023-05-22T19:15:17.679Z,98237.31
2023-05-22T19:18:20.797Z,98231.13
2023-05-22T19:21:23.401Z,98234.38
2023-05-22T19:24:26.690Z,98239.75
2023-05-22T19:27:29.287Z,98243.94
2023-05-22T19:30:32.515Z,98240.34
2023-05-22T19:33:35.093Z,98246.16
2023-05-22T19:36:38.076Z,98242.31
2023-05-22T19:39:41.180Z,98234.41
2023-05-22T19:42:44.243Z,98222.88
2023-05-22T19:45:47.178Z,98245.94
2023-05-22T19:48:50.538Z,98246.69
2023-05-22T19:51:56.004Z,98245.81
2023-05-22T19:54:59.360Z,98240.72
2023-05-22T19:58:02.076Z,98250.50
2023-05-22T20:01:05.337Z,98248.91
2023-05-22T20:04:08.305Z,98249.91
2023-05-22T20:07:11.010Z,98248.28
2023-05-22T20:10:14.531Z,98251.62
2023-05-22T20:13:17.614Z,98223.22
2023-05-22T20:16:20.736Z,98242.94
2023-05-22T20:19:24.429Z,98247.78
2023-05-22T20:22:27.978Z,98240.72
2023-05-22T20:25:30.731Z,98238.84
2023-05-22T20:28:33.732Z,98235.25
2023-05-22T20:31:36.420Z,98237.25
2023-05-22T20:34:40.106Z,98243.78
2023-05-22T20:37:42.826Z,98240.31
2023-05-22T20:40:47.913Z,98232.16
2023-05-22T20:43:50.537Z,98235.13
2023-05-22T20:46:54.045Z,98225.44
2023-05-22T20:49:56.805Z,98231.16
2023-05-22T20:53:00.757Z,98234.38
2023-05-22T20:56:03.529Z,98242.56
2023-05-22T20:59:06.347Z,98238.19
2023-05-22T21:02:09.318Z,98238.31
2023-05-22T21:05:12.188Z,98234.72
2023-05-22T21:08:15.018Z,98227.91
2023-05-22T21:11:18.173Z,98228.16
2023-05-22T21:14:20.700Z,98232.84
2023-05-22T21:17:24.674Z,98228.75
2023-05-22T21:20:27.631Z,98230.09
2023-05-22T21:23:30.583Z,98227.47
2023-05-22T21:26:33.409Z,98227.16
2023-05-22T21:29:36.429Z,98230.75
2023-05-22T21:32:39.159Z,98236.94
2023-05-22T21:35:42.269Z,98238.81
2023-05-22T21:38:45.290Z,98239.25
2023-05-22T21:41:49.864Z,98238.63
2023-05-22T21:44:53.014Z,98244.53
2023-05-22T21:47:56.166Z,98232.75
2023-05-22T21:50:58.871Z,98243.53
2023-05-22T21:54:01.830Z,98238.69
2023-05-22T21:57:04.543Z,98240.13
2023-05-22T22:00:08.064Z,98240.13
2023-05-22T22:03:10.698Z,98238.16
2023-05-22T22:06:13.876Z,98237.94
2023-05-22T22:09:16.487Z,98237.94
2023-05-22T22:12:19.282Z,98227.16
2023-05-22T22:15:22.211Z,98232.19
2023-05-22T22:18:25.070Z,98230.16
2023-05-22T22:21:28.241Z,98224.47
2023-05-22T22:24:31.152Z,98242.69
2023-05-22T22:27:34.049Z,98236.03
2023-05-22T22:30:36.935Z,98239.59
2023-05-22T22:33:39.507Z,98235.28
2023-05-22T22:36:42.437Z,98232.78
2023-05-22T22:39:44.988Z,98233.37
2023-05-22T22:42:47.957Z,98232.84
2023-05-22T22:45:50.570Z,98230.38
2023-05-22T22:48:54.477Z,98225.75
2023-05-22T22:51:57.557Z,98226.25
2023-05-22T22:55:00.683Z,98207.97
2023-05-22T22:58:03.652Z,98221.47
2023-05-22T23:01:06.664Z,98228.16
2023-05-22T23:04:09.463Z,98226.22
2023-05-22T23:07:12.437Z,98217.25
2023-05-22T23:10:16.621Z,98214.22
2023-05-22T23:13:19.602Z,98211.81
2023-05-22T23:16:22.946Z,98214.69
2023-05-22T23:19:26.375Z,98206.62
2023-05-22T23:22:29.229Z,98214.91
2023-05-22T23:25:32.112Z,98214.25
2023-05-22T23:28:34.714Z,98208.94
2023-05-22T23:31:37.535Z,98200.88
2023-05-22T23:34:42.276Z,98201.09
2023-05-22T23:37:45.331Z,98206.97
2023-05-22T23:40:47.885Z,98207.22
2023-05-22T23:43:50.720Z,98196.47
2023-05-22T23:46:53.447Z,98203.97
2023-05-22T23:49:56.774Z,98204.34
2023-05-22T23:52:59.380Z,98196.03
2023-05-22T23:56:02.878Z,98205.19
2023-05-22T23:59:05.496Z,98196.28
